Have a Safe July 4th! 

Flight Track Log - Related Links

Times and Time Zones

All times are in EDT time to prevent confusion due to time zone crossing. See the JST526 flight status page for this flight to view local times or setup timezone preferences in your user account.

Time Position Orientation Groundspeed Altitude Reporting Facility
EDT Latitude Longitude Course Direction KTS MPH feet Rate Location/Type
Mon 06:36:32 AM -37.6600 144.8130 274° West 152 175 1,400  Level FlightAware ADS-B
Mon 06:36:33 AM -37.6599 144.8071 274° West 148 170 1,500 2,160 Climbing Aus ATC (RADAR)
Mon 06:36:57 AM -37.6590 144.7900 273° West 167 192 2,300 1,778 Climbing FlightAware ADS-B
Mon 06:37:27 AM -37.6560 144.7610 277° West 199 229 3,100 2,000 Climbing FlightAware ADS-B
Mon 06:37:57 AM -37.6530 144.7180 275° West 243 280 4,300 2,550 Climbing FlightAware ADS-B
Mon 06:38:07 AM -37.6500 144.7080 291° West 245 282 4,800 3,600 Climbing FlightAware ADS-B
Mon 06:38:22 AM -37.6390 144.6910 309° West 250 288 5,800 4,200 Climbing FlightAware ADS-B
Mon 06:38:37 AM -37.6220 144.6820 337° Northwest 258 297 6,900 4,000 Climbing FlightAware ADS-B
Mon 06:38:52 AM -37.6050 144.6750 342° North 260 299 7,800 3,200 Climbing FlightAware ADS-B
Mon 06:39:22 AM -37.5690 144.6610 343° North 276 318 9,300 2,862 Climbing FlightAware ADS-B
Mon 06:39:57 AM -37.5150 144.6814 343° North 309 356 10,900 2,250 Climbing Aus ATC (RADAR)
Mon 06:40:02 AM -37.5180 144.6800 343° North 326 375 10,800 400 Descending FlightAware ADS-B
Mon 06:40:12 AM -37.5080 144.6970 53° Northeast 348 400 11,000 1,350 Climbing FlightAware ADS-B
Mon 06:40:42 AM -37.4763 144.7638 53° Northeast 369 425 11,700 1,200 Climbing Aus ATC (RADAR)
Mon 06:40:57 AM -37.4710 144.7760 53° Northeast 392 451 11,900 2,520 Climbing FlightAware ADS-B
Mon 06:41:32 AM -37.4280 144.8640 53° Northeast 404 465 13,800 2,800 Climbing Aus ATC (RADAR)
Mon 06:41:42 AM -37.4250 144.8710 53° Northeast 408 470 14,000 2,280 Climbing FlightAware ADS-B
Mon 06:42:22 AM -37.3840 144.9530 58° Northeast 416 479 15,700 2,480 Climbing FlightAware ADS-B
Mon 06:42:57 AM -37.3480 145.0250 58° Northeast 423 487 17,100 2,291 Climbing FlightAware ADS-B
Mon 06:43:17 AM -37.3210 145.0807 58° Northeast 426 490 17,800 1,886 Climbing Aus ATC (RADAR)
Mon 06:43:32 AM -37.3051 145.1131 58° Northeast 431 496 18,200 1,800 Climbing Aus ATC (RADAR)
Mon 06:43:47 AM -37.2960 145.1320 58° Northeast 438 504 18,700 2,182 Climbing FlightAware ADS-B
Mon 06:44:27 AM -37.2520 145.2210 58° Northeast 443 510 20,200 2,100 Climbing FlightAware ADS-B
Mon 06:45:07 AM -37.2026 145.3196 58° Northeast 445 512 21,500 1,867 Climbing Aus ATC (RADAR)
Mon 06:45:12 AM -37.2020 145.3200 58° Northeast 452 520 21,600 1,650 Climbing FlightAware ADS-B
Mon 06:45:47 AM -37.1630 145.3980 58° Northeast 457 526 22,600 1,575 Climbing FlightAware ADS-B
Mon 06:46:32 AM -37.1060 145.4970 54° Northeast 467 537 23,700 1,300 Climbing FlightAware ADS-B
Mon 06:46:47 AM -37.0821 145.5394 54° Northeast 467 537 23,900 1,200 Climbing Aus ATC (RADAR)
Mon 06:47:02 AM -37.0628 145.5726 54° Northeast 471 542 24,300 1,600 Climbing Aus ATC (RADAR)
Mon 06:47:17 AM -37.0490 145.5970 54° Northeast 476 548 24,700 1,714 Climbing FlightAware ADS-B
Mon 06:47:37 AM -37.0179 145.6509 54° Northeast 475 547 25,300 1,800 Climbing Aus ATC (RADAR)
Mon 06:47:57 AM -36.9980 145.6860 54° Northeast 475 547 25,900 1,400 Climbing FlightAware ADS-B
Mon 06:48:37 AM -36.9460 145.7770 54° Northeast 483 556 26,700 1,275 Climbing FlightAware ADS-B
Mon 06:49:17 AM -36.8940 145.8650 54° Northeast 484 557 27,600 2,127 Climbing FlightAware ADS-B
Mon 06:49:56 AM -36.8366 145.9631 54° Northeast 470 541 29,500 2,533 Climbing Aus ATC (RADAR)
Mon 06:50:02 AM -36.8360 145.9650 54° Northeast 469 540 29,500 933 Level FlightAware ADS-B
Mon 06:50:41 AM -36.7780 146.0623 54° Northeast 475 547 30,200 1,050 Climbing Aus ATC (RADAR)
Mon 06:50:42 AM -36.7850 146.0530 54° Northeast 477 549 30,200 1,043 Level FlightAware ADS-B
Mon 06:51:27 AM -36.7270 146.1530 54° Northeast 484 557 31,000 1,031 Climbing FlightAware ADS-B
Mon 06:51:46 AM -36.6927 146.2084 54° Northeast 483 556 31,300 1,200 Climbing Aus ATC (RADAR)
Mon 06:52:07 AM -36.6740 146.2430 54° Northeast 488 562 31,800 1,273 Climbing FlightAware ADS-B
Mon 06:52:52 AM -36.6140 146.3440 54° Northeast 489 563 32,700 1,378 Climbing FlightAware ADS-B
Mon 06:53:21 AM -36.5666 146.4230 54° Northeast 486 559 33,500 1,350 Climbing Aus ATC (RADAR)
Mon 06:53:32 AM -36.5590 146.4380 54° Northeast 486 559 33,600 1,200 Climbing FlightAware ADS-B
Mon 06:54:06 AM -36.5064 146.5237 54° Northeast 484 557 34,400 1,350 Climbing Aus ATC (RADAR)
Mon 06:54:12 AM -36.5060 146.5270 54° Northeast 483 556 34,500 1,294 Climbing FlightAware ADS-B
Mon 06:54:57 AM -36.4470 146.6270 54° Northeast 479 551 35,500 1,391 Climbing FlightAware ADS-B
Mon 06:55:21 AM -36.4087 146.6898 54° Northeast 474 545 36,100 1,200 Climbing Aus ATC (RADAR)
Mon 06:55:37 AM -36.3960 146.7130 54° Northeast 474 545 36,300 514 Climbing FlightAware ADS-B
Mon 06:55:56 AM -36.3626 146.7664 54° Northeast 474 545 36,400 533 Climbing Aus ATC (RADAR)
Mon 06:56:22 AM -36.3370 146.8110 54° Northeast 482 555 36,700 720 Climbing FlightAware ADS-B
Mon 06:56:46 AM -36.2963 146.8778 54° Northeast 482 555 37,000 450 Climbing Aus ATC (RADAR)
Mon 06:57:02 AM -36.2810 146.9050 54° Northeast 482 555 37,000  Level FlightAware ADS-B
Mon 06:57:21 AM -36.2505 146.9553 54° Northeast 477 549 37,000  Level Aus ATC (RADAR)
Mon 06:57:42 AM -36.2290 146.9930 54° Northeast 479 551 37,000  Level FlightAware ADS-B
Mon 06:58:11 AM -36.1838 147.0645 54° Northeast 474 545 37,000  Level Aus ATC (RADAR)
Mon 06:58:26 AM -36.1642 147.0975 54° Northeast 474 545 37,000  Level Aus ATC (RADAR)
Mon 06:58:27 AM -36.1700 147.0910 54° Northeast 477 549 37,000  Level FlightAware ADS-B
Mon 06:59:01 AM -36.1182 147.1738 54° Northeast 474 545 37,000  Level Aus ATC (RADAR)
Mon 06:59:07 AM -36.1170 147.1790 54° Northeast 476 548 37,000  Level FlightAware ADS-B
Mon 06:59:47 AM -36.0640 147.2660 53° Northeast 475 547 37,000  Level FlightAware ADS-B
Mon 07:00:11 AM -36.0263 147.3254 53° Northeast 470 541 37,000  Level Aus ATC (RADAR)
Mon 07:00:26 AM -36.0067 147.3583 54° Northeast 472 543 37,000  Level Aus ATC (RADAR)
Mon 07:00:32 AM -36.0070 147.3600 54° Northeast 477 549 37,000  Level FlightAware ADS-B
Mon 07:01:05 AM -35.9539 147.4456 54° Northeast 474 545 37,000  Level Aus ATC (RADAR)
Mon 07:01:12 AM -35.9540 147.4480 54° Northeast 480 552 37,000  Level FlightAware ADS-B
Mon 07:01:50 AM -35.8941 147.5435 54° Northeast 473 544 37,000  Level Aus ATC (RADAR)
Mon 07:01:57 AM -35.8940 147.5470 54° Northeast 479 551 37,000  Level FlightAware ADS-B
Mon 07:02:25 AM -35.8475 147.6203 54° Northeast 478 550 37,000  Level Aus ATC (RADAR)
Mon 07:02:37 AM -35.8390 147.6370 54° Northeast 480 552 37,000  Level FlightAware ADS-B
Mon 07:03:15 AM -35.7808 147.7293 54° Northeast 477 549 37,000  Level Aus ATC (RADAR)
Mon 07:03:22 AM -35.7840 147.7260 54° Northeast 481 554 37,000  Level FlightAware ADS-B
Mon 07:04:02 AM -35.7260 147.8200 53° Northeast 482 555 37,000  Level FlightAware ADS-B
Mon 07:04:42 AM -35.6700 147.9120 53° Northeast 482 555 37,000  Level FlightAware ADS-B
Mon 07:05:20 AM -35.6131 148.0020 53° Northeast 477 549 37,000  Level Aus ATC (RADAR)
Mon 07:05:35 AM -35.5932 148.0348 53° Northeast 477 549 37,000  Level Aus ATC (RADAR)
Mon 07:06:10 AM -35.5462 148.1110 53° Northeast 478 550 37,000  Level Aus ATC (RADAR)
Mon 07:07:05 AM -35.4725 148.2308 53° Northeast 476 548 37,000  Level Aus ATC (RADAR)
Mon 07:07:37 AM -35.4430 148.2900 58° Northeast 487 560 37,000  Level FlightAware ADS-B
Mon 07:07:40 AM -35.4307 148.3132 58° Northeast 480 552 37,000  Level Aus ATC (RADAR)
Mon 07:08:35 AM -35.3647 148.4420 58° Northeast 483 556 37,000  Level Aus ATC (RADAR)
Mon 07:09:10 AM -35.3215 148.5231 57° Northeast 483 556 37,000  Level Aus ATC (RADAR)
Mon 07:10:02 AM -35.2650 148.6290 57° Northeast 485 558 37,000  Level FlightAware ADS-B
Mon 07:10:20 AM -35.2349 148.6853 57° Northeast 484 557 37,000  Level Aus ATC (RADAR)
Mon 07:10:35 AM -35.2165 148.7202 57° Northeast 484 557 37,000  Level Aus ATC (RADAR)
Mon 07:11:10 AM -35.1733 148.8009 57° Northeast 481 554 37,000  Level Aus ATC (RADAR)
Mon 07:11:59 AM -35.1117 148.9155 57° Northeast 478 550 37,000  Level Aus ATC (RADAR)
Mon 07:12:27 AM -35.0860 148.9630 57° Northeast 480 552 37,000  Level FlightAware ADS-B
Mon 07:13:25 AM -35.0073 149.1095 57° Northeast 477 549 37,000 -505 Level Aus ATC (RADAR)
Mon 07:14:14 AM -34.9456 149.2236 57° Northeast 474 545 36,100 -1,655 Descending Aus ATC (RADAR)
Mon 07:14:52 AM -34.9090 149.2910 57° Northeast 485 558 34,600 -3,150 Descending FlightAware ADS-B
Mon 07:15:34 AM -34.8449 149.4082 57° Northeast 485 558 31,900 -3,581 Descending Aus ATC (RADAR)
Mon 07:15:54 AM -34.8195 149.4555 57° Northeast 488 562 30,900 -2,400 Descending Aus ATC (RADAR)
Mon 07:16:24 AM -34.7814 149.5250 56° Northeast 484 557 29,900 -2,118 Descending Aus ATC (RADAR)
Mon 07:17:19 AM -34.7123 149.6511 56° Northeast 478 550 27,900 -2,267 Descending Aus ATC (RADAR)
Mon 07:17:54 AM -34.6689 149.7299 56° Northeast 471 542 26,500 -2,154 Descending Aus ATC (RADAR)
Mon 07:18:37 AM -34.6230 149.8140 56° Northeast 467 537 25,100 -2,123 Descending FlightAware ADS-B
Mon 07:18:59 AM -34.5907 149.8717 56° Northeast 453 521 24,200 -2,160 Descending Aus ATC (RADAR)
Mon 07:19:27 AM -34.5620 149.9240 56° Northeast 466 536 23,300 -2,118 Descending FlightAware ADS-B
Mon 07:20:07 AM -34.5140 150.0100 56° Northeast 457 526 21,800 -2,328 Descending FlightAware ADS-B
Mon 07:20:34 AM -34.4785 150.0750 56° Northeast 441 507 20,700 -2,250 Descending Aus ATC (RADAR)
Mon 07:20:47 AM -34.4660 150.0970 56° Northeast 448 516 20,300 -2,400 Descending FlightAware ADS-B
Mon 07:20:49 AM -34.4612 150.1061 56° Northeast 438 504 20,100 -2,432 Descending Aus ATC (RADAR)
Mon 07:21:24 AM -34.4210 150.1781 56° Northeast 431 496 18,800 -2,093 Descending Aus ATC (RADAR)
Mon 07:21:32 AM -34.4140 150.1910 56° Northeast 438 504 18,600 -2,000 Descending FlightAware ADS-B
Mon 07:22:12 AM -34.3690 150.2720 56° Northeast 428 493 17,200 -2,211 Descending FlightAware ADS-B
Mon 07:22:48 AM -34.3269 150.3470 56° Northeast 411 473 15,800 -2,000 Descending Aus ATC (RADAR)
Mon 07:22:57 AM -34.3230 150.3540 56° Northeast 416 479 15,700 -1,837 Descending FlightAware ADS-B
Mon 07:23:37 AM -34.2790 150.4340 56° Northeast 418 481 14,300 -1,967 Descending FlightAware ADS-B
Mon 07:23:58 AM -34.2561 150.4845 56° Northeast 400 460 13,700 -1,714 Descending Aus ATC (RADAR)
Mon 07:24:12 AM -34.2460 150.5070 56° Northeast 399 459 13,300 -2,500 Descending FlightAware ADS-B
Mon 07:24:34 AM -34.2257 150.5527 56° Northeast 384 442 12,200 -2,160 Descending Aus ATC (RADAR)
Mon 07:25:02 AM -34.2060 150.5950 56° Northeast 390 449 11,500 -1,147 Descending FlightAware ADS-B
Mon 07:25:42 AM -34.1730 150.6700 62° Northeast 360 414 10,900 -984 Descending FlightAware ADS-B
Mon 07:26:03 AM -34.1514 150.7180 62° Northeast 344 396 10,500 -1,000 Descending Aus ATC (RADAR)
Mon 07:26:18 AM -34.1404 150.7423 61° Northeast 331 381 10,300 -500 Descending Aus ATC (RADAR)
Mon 07:26:27 AM -34.1390 150.7460 61° Northeast 323 372 10,300 -529 Level FlightAware ADS-B
Mon 07:26:52 AM -34.1210 150.7850 61° Northeast 311 358 10,000 -1,154 Descending FlightAware ADS-B
Mon 07:26:53 AM -34.1159 150.7967 61° Northeast 308 354 9,800 -1,600 Descending Aus ATC (RADAR)
Mon 07:27:07 AM -34.1110 150.8080 62° Northeast 301 346 9,600 -1,241 Descending FlightAware ADS-B
Mon 07:27:22 AM -34.1050 150.8330 74° East 302 348 9,200 -1,756 Descending FlightAware ADS-B
Mon 07:27:48 AM -34.1145 150.8854 74° East 293 337 8,400 -1,400 Descending Aus ATC (RADAR)
Mon 07:27:52 AM -34.1130 150.8810 74° East 301 346 8,500 -828 Climbing FlightAware ADS-B
Mon 07:28:17 AM -34.1220 150.9170 107° East 294 338 8,000 -1,309 Descending FlightAware ADS-B
Mon 07:28:47 AM -34.1320 150.9650 104° East 286 329 7,300 -1,600 Descending FlightAware ADS-B
Mon 07:29:02 AM -34.1380 150.9920 105° East 287 330 6,800 -1,950 Descending FlightAware ADS-B
Mon 07:29:27 AM -34.1470 151.0290 105° East 292 336 6,000 -2,538 Descending FlightAware ADS-B
Mon 07:29:28 AM -34.1498 151.0425 105° East 281 323 5,700 -1,600 Descending Aus ATC (RADAR)
Mon 07:29:57 AM -34.1580 151.0770 105° East 300 345 5,200 -1,077 Descending FlightAware ADS-B
Mon 07:30:07 AM -34.1620 151.0950 105° East 295 339 5,000 -1,371 Descending FlightAware ADS-B
Mon 07:30:32 AM -34.1720 151.1350 107° East 286 329 4,400 -1,440 Descending FlightAware ADS-B
Mon 07:30:57 AM -34.1800 151.1730 104° East 287 330 3,800 -1,067 Descending FlightAware ADS-B
Mon 07:31:17 AM -34.1710 151.2040 71° East 269 310 3,600 -686 Descending FlightAware ADS-B
Mon 07:31:32 AM -34.1550 151.2180 36° Northeast 244 281 3,400 -600 Descending FlightAware ADS-B
Mon 07:31:47 AM -34.1420 151.2210 11° North 230 265 3,300 -885 Descending FlightAware ADS-B
Mon 07:32:33 AM -34.0881 151.2129 11° North 223 257 2,500 -1,111 Descending Aus ATC (RADAR)
Mon 07:33:08 AM -34.0548 151.2039 347° North 207 238 1,800 -1,000 Descending Aus ATC (RADAR)
Mon 07:33:57 AM -34.0163 151.1943 348° North 161 185 1,100 -778 Descending Aus ATC (RADAR)
Mon 07:34:02 AM -34.0170 151.1940 348° North 149 171 1,100 -720 Level FlightAware ADS-B
Mon 07:34:47 AM -33.9850 151.1862 348° North 139 160 500 -720 Descending Aus ATC (RADAR)
Mon 07:35:17 AM -33.9700 151.1820 348° North 132 152 200 -600 Descending FlightAware ADS-B

Login

Don't have an account? Register now (free) for customized features, flight alerts, and more!